sensor_id;sensor_type;location;lat;lon;timestamp;pressure;altitude;pressure_sealevel;temperature;humidity
40285;BME280;25997;50.214;19.354;2023-05-15T00:02:23;97198.03;;;12.52;58.17
40285;BME280;25997;50.214;19.354;2023-05-15T00:05:26;97200.66;;;12.52;57.93
40285;BME280;25997;50.214;19.354;2023-05-15T00:08:29;97182.22;;;12.52;58.22
40285;BME280;25997;50.214;19.354;2023-05-15T00:11:31;97176.09;;;12.52;58.23
40285;BME280;25997;50.214;19.354;2023-05-15T00:14:35;97176.09;;;12.49;58.37
40285;BME280;25997;50.214;19.354;2023-05-15T00:17:37;97163.81;;;12.52;58.28
40285;BME280;25997;50.214;19.354;2023-05-15T00:20:40;97152.38;;;12.49;58.76
40285;BME280;25997;50.214;19.354;2023-05-15T00:23:42;97169.94;;;12.51;58.43
40285;BME280;25997;50.214;19.354;2023-05-15T00:26:47;97160.31;;;12.55;58.24
40285;BME280;25997;50.214;19.354;2023-05-15T00:29:51;97145.41;;;12.55;58.26
40285;BME280;25997;50.214;19.354;2023-05-15T00:32:53;97145.34;;;12.48;58.78
40285;BME280;25997;50.214;19.354;2023-05-15T00:35:56;97143.59;;;12.48;58.52
40285;BME280;25997;50.214;19.354;2023-05-15T00:38:58;97146.25;;;12.53;58.57
40285;BME280;25997;50.214;19.354;2023-05-15T00:42:01;97133.94;;;12.52;58.53
40285;BME280;25997;50.214;19.354;2023-05-15T00:45:08;97129.56;;;12.52;58.53
40285;BME280;25997;50.214;19.354;2023-05-15T00:48:11;97120.78;;;12.53;58.53
40285;BME280;25997;50.214;19.354;2023-05-15T00:51:15;97118.16;;;12.50;58.63
40285;BME280;25997;50.214;19.354;2023-05-15T00:54:18;97114.66;;;12.53;58.67
40285;BME280;25997;50.214;19.354;2023-05-15T00:57:22;97111.16;;;12.57;58.67
40285;BME280;25997;50.214;19.354;2023-05-15T01:00:27;97112.06;;;12.62;58.46
40285;BME280;25997;50.214;19.354;2023-05-15T01:03:29;97103.28;;;12.60;58.99
40285;BME280;25997;50.214;19.354;2023-05-15T01:06:34;97091.84;;;12.61;58.67
40285;BME280;25997;50.214;19.354;2023-05-15T01:09:41;97090.97;;;12.57;58.72
40285;BME280;25997;50.214;19.354;2023-05-15T01:12:45;97091.81;;;12.58;58.65
40285;BME280;25997;50.214;19.354;2023-05-15T01:15:50;97095.38;;;12.60;58.56
40285;BME280;25997;50.214;19.354;2023-05-15T01:18:52;97090.97;;;12.63;58.41
40285;BME280;25997;50.214;19.354;2023-05-15T01:22:14;97097.13;;;12.64;58.99
40285;BME280;25997;50.214;19.354;2023-05-15T01:25:42;97098.84;;;12.60;59.44
40285;BME280;25997;50.214;19.354;2023-05-15T01:28:56;97093.59;;;12.57;58.79
40285;BME280;25997;50.214;19.354;2023-05-15T01:32:02;97085.72;;;12.57;58.94
40285;BME280;25997;50.214;19.354;2023-05-15T01:35:11;97092.72;;;12.55;59.04
40285;BME280;25997;50.214;19.354;2023-05-15T01:38:18;97087.44;;;12.57;58.75
40285;BME280;25997;50.214;19.354;2023-05-15T01:41:27;97085.72;;;12.57;58.60
40285;BME280;25997;50.214;19.354;2023-05-15T01:44:35;97090.09;;;12.55;58.87
40285;BME280;25997;50.214;19.354;2023-05-15T01:47:43;97082.19;;;12.55;59.01
40285;BME280;25997;50.214;19.354;2023-05-15T01:50:46;97076.91;;;12.57;58.96
40285;BME280;25997;50.214;19.354;2023-05-15T01:53:51;97070.75;;;12.56;58.85
40285;BME280;25997;50.214;19.354;2023-05-15T01:56:56;97068.13;;;12.55;59.14
40285;BME280;25997;50.214;19.354;2023-05-15T02:00:00;97068.13;;;12.56;58.79
40285;BME280;25997;50.214;19.354;2023-05-15T02:03:14;97074.28;;;12.51;59.32
40285;BME280;25997;50.214;19.354;2023-05-15T02:06:17;97053.19;;;12.49;59.34
40285;BME280;25997;50.214;19.354;2023-05-15T02:09:21;97053.22;;;12.51;59.13
40285;BME280;25997;50.214;19.354;2023-05-15T02:12:25;97049.72;;;12.55;58.98
40285;BME280;25997;50.214;19.354;2023-05-15T02:15:29;97049.69;;;12.53;59.06
40285;BME280;25997;50.214;19.354;2023-05-15T02:18:32;97052.34;;;12.55;58.91
40285;BME280;25997;50.214;19.354;2023-05-15T02:21:34;97047.94;;;12.58;58.87
40285;BME280;25997;50.214;19.354;2023-05-15T02:24:37;97051.47;;;12.57;59.09
40285;BME280;25997;50.214;19.354;2023-05-15T02:27:45;97038.31;;;12.62;58.88
40285;BME280;25997;50.214;19.354;2023-05-15T02:30:54;97038.31;;;12.68;59.10
40285;BME280;25997;50.214;19.354;2023-05-15T02:34:04;97032.16;;;12.67;58.88
40285;BME280;25997;50.214;19.354;2023-05-15T02:37:13;97029.53;;;12.69;58.84
40285;BME280;25997;50.214;19.354;2023-05-15T02:40:19;97033.06;;;12.72;58.88
40285;BME280;25997;50.214;19.354;2023-05-15T02:43:25;97028.66;;;12.74;59.05
40285;BME280;25997;50.214;19.354;2023-05-15T02:46:30;97023.38;;;12.65;59.22
40285;BME280;25997;50.214;19.354;2023-05-15T02:49:34;97021.63;;;12.66;59.34
40285;BME280;25997;50.214;19.354;2023-05-15T02:52:37;97031.28;;;12.65;59.37
40285;BME280;25997;50.214;19.354;2023-05-15T02:55:40;97024.25;;;12.69;59.29
40285;BME280;25997;50.214;19.354;2023-05-15T02:58:43;97023.38;;;12.61;59.71
40285;BME280;25997;50.214;19.354;2023-05-15T03:01:47;97029.53;;;12.69;59.48
40285;BME280;25997;50.214;19.354;2023-05-15T03:04:49;97007.56;;;12.71;59.29
40285;BME280;25997;50.214;19.354;2023-05-15T03:07:52;97012.84;;;12.70;59.46
40285;BME280;25997;50.214;19.354;2023-05-15T03:10:54;97006.72;;;12.75;59.34
40285;BME280;25997;50.214;19.354;2023-05-15T03:13:57;97011.09;;;12.78;59.38
40285;BME280;25997;50.214;19.354;2023-05-15T03:17:01;97006.72;;;12.78;59.36
40285;BME280;25997;50.214;19.354;2023-05-15T03:20:05;97010.22;;;12.80;59.33
40285;BME280;25997;50.214;19.354;2023-05-15T03:23:08;97010.22;;;12.71;59.70
40285;BME280;25997;50.214;19.354;2023-05-15T03:26:11;97014.63;;;12.66;59.92
40285;BME280;25997;50.214;19.354;2023-05-15T03:29:13;97008.47;;;12.66;60.08
40285;BME280;25997;50.214;19.354;2023-05-15T03:32:17;97008.47;;;12.67;60.12
40285;BME280;25997;50.214;19.354;2023-05-15T03:35:20;97010.22;;;12.68;60.07
40285;BME280;25997;50.214;19.354;2023-05-15T03:38:22;97013.72;;;12.66;60.22
40285;BME280;25997;50.214;19.354;2023-05-15T03:41:24;97010.22;;;12.65;60.35
40285;BME280;25997;50.214;19.354;2023-05-15T03:44:27;97008.44;;;12.69;60.25
40285;BME280;25997;50.214;19.354;2023-05-15T03:47:32;97009.34;;;12.74;60.07
40285;BME280;25997;50.214;19.354;2023-05-15T03:50:35;96991.81;;;12.73;60.29
40285;BME280;25997;50.214;19.354;2023-05-15T03:53:39;96988.28;;;12.66;60.48
40285;BME280;25997;50.214;19.354;2023-05-15T03:56:41;96993.53;;;12.65;60.52
40285;BME280;25997;50.214;19.354;2023-05-15T03:59:44;96992.66;;;12.60;60.74
40285;BME280;25997;50.214;19.354;2023-05-15T04:02:47;96978.59;;;12.62;60.67
40285;BME280;25997;50.214;19.354;2023-05-15T04:05:50;96976.88;;;12.64;60.67
40285;BME280;25997;50.214;19.354;2023-05-15T04:08:53;96968.09;;;12.64;60.90
40285;BME280;25997;50.214;19.354;2023-05-15T04:11:55;96963.69;;;12.63;60.79
40285;BME280;25997;50.214;19.354;2023-05-15T04:14:58;96969.84;;;12.63;60.82
40285;BME280;25997;50.214;19.354;2023-05-15T04:18:15;96963.72;;;12.64;60.77
40285;BME280;25997;50.214;19.354;2023-05-15T04:21:17;96968.94;;;12.69;60.87
40285;BME280;25997;50.214;19.354;2023-05-15T04:24:20;96970.72;;;12.70;60.78
40285;BME280;25997;50.214;19.354;2023-05-15T04:27:25;96964.56;;;12.69;60.85
40285;BME280;25997;50.214;19.354;2023-05-15T04:30:27;96964.56;;;12.74;60.88
40285;BME280;25997;50.214;19.354;2023-05-15T04:33:32;96964.56;;;12.80;61.03
40285;BME280;25997;50.214;19.354;2023-05-15T04:36:34;96957.53;;;12.85;60.95
40285;BME280;25997;50.214;19.354;2023-05-15T04:39:37;96953.16;;;12.88;61.00
40285;BME280;25997;50.214;19.354;2023-05-15T04:42:39;96939.09;;;12.93;60.90
40285;BME280;25997;50.214;19.354;2023-05-15T04:45:42;96918.88;;;12.91;61.12
40285;BME280;25997;50.214;19.354;2023-05-15T04:48:46;96915.38;;;12.99;61.20
40285;BME280;25997;50.214;19.354;2023-05-15T04:51:48;96913.63;;;13.10;61.25
40285;BME280;25997;50.214;19.354;2023-05-15T04:54:50;96932.91;;;13.27;61.12
40285;BME280;25997;50.214;19.354;2023-05-15T04:57:55;96932.91;;;13.34;61.29
40285;BME280;25997;50.214;19.354;2023-05-15T05:00:57;96932.84;;;13.48;61.13
40285;BME280;25997;50.214;19.354;2023-05-15T05:04:01;96938.97;;;13.57;61.23
40285;BME280;25997;50.214;19.354;2023-05-15T05:07:04;96953.91;;;13.60;61.00
40285;BME280;25997;50.214;19.354;2023-05-15T05:10:07;96946.88;;;13.56;61.11
40285;BME280;25997;50.214;19.354;2023-05-15T05:13:10;96948.63;;;13.55;61.24
40285;BME280;25997;50.214;19.354;2023-05-15T05:16:12;96948.63;;;13.55;61.21
40285;BME280;25997;50.214;19.354;2023-05-15T05:19:16;96937.19;;;13.61;61.38
40285;BME280;25997;50.214;19.354;2023-05-15T05:22:19;96943.31;;;13.71;61.18
40285;BME280;25997;50.214;19.354;2023-05-15T05:25:21;96946.81;;;13.71;61.22
40285;BME280;25997;50.214;19.354;2023-05-15T05:28:24;96936.25;;;13.74;61.33
40285;BME280;25997;50.214;19.354;2023-05-15T05:31:26;96932.75;;;13.74;61.52
40285;BME280;25997;50.214;19.354;2023-05-15T05:34:30;96928.34;;;13.74;61.32
40285;BME280;25997;50.214;19.354;2023-05-15T05:37:32;96927.47;;;13.69;61.38
40285;BME280;25997;50.214;19.354;2023-05-15T05:40:35;96919.59;;;13.66;61.74
40285;BME280;25997;50.214;19.354;2023-05-15T05:43:38;96923.06;;;13.76;61.73
40285;BME280;25997;50.214;19.354;2023-05-15T05:46:41;96916.03;;;13.78;61.70
40285;BME280;25997;50.214;19.354;2023-05-15T05:49:44;96921.31;;;13.79;61.72
40285;BME280;25997;50.214;19.354;2023-05-15T05:52:48;96923.06;;;13.79;61.74
40285;BME280;25997;50.214;19.354;2023-05-15T05:55:50;96918.69;;;13.72;61.89
40285;BME280;25997;50.214;19.354;2023-05-15T05:58:53;96909.88;;;13.74;62.06
40285;BME280;25997;50.214;19.354;2023-05-15T06:01:56;96907.19;;;13.85;62.41
40285;BME280;25997;50.214;19.354;2023-05-15T06:05:00;96896.56;;;14.03;61.98
40285;BME280;25997;50.214;19.354;2023-05-15T06:08:02;96904.41;;;14.16;61.84
40285;BME280;25997;50.214;19.354;2023-05-15T06:11:06;96905.19;;;14.30;61.86
40285;BME280;25997;50.214;19.354;2023-05-15T06:14:08;96907.72;;;14.46;61.65
40285;BME280;25997;50.214;19.354;2023-05-15T06:17:11;96902.34;;;14.58;61.76
40285;BME280;25997;50.214;19.354;2023-05-15T06:20:15;96893.50;;;14.60;61.60
40285;BME280;25997;50.214;19.354;2023-05-15T06:23:17;96892.66;;;14.60;61.32
40285;BME280;25997;50.214;19.354;2023-05-15T06:26:20;96880.28;;;14.62;61.71
40285;BME280;25997;50.214;19.354;2023-05-15T06:29:23;96870.59;;;14.64;61.75
40285;BME280;25997;50.214;19.354;2023-05-15T06:32:25;96884.66;;;14.63;61.35
40285;BME280;25997;50.214;19.354;2023-05-15T06:35:30;96887.28;;;14.69;61.50
40285;BME280;25997;50.214;19.354;2023-05-15T06:38:32;96892.50;;;14.73;61.24
40285;BME280;25997;50.214;19.354;2023-05-15T06:41:35;96889.69;;;14.97;61.47
40285;BME280;25997;50.214;19.354;2023-05-15T06:44:38;96886.91;;;15.08;61.09
40285;BME280;25997;50.214;19.354;2023-05-15T06:47:40;96875.28;;;15.24;60.99
40285;BME280;25997;50.214;19.354;2023-05-15T06:50:44;96884.88;;;15.33;60.96
40285;BME280;25997;50.214;19.354;2023-05-15T06:53:46;96881.25;;;15.41;60.62
40285;BME280;25997;50.214;19.354;2023-05-15T06:56:49;96877.75;;;15.38;60.30
40285;BME280;25997;50.214;19.354;2023-05-15T06:59:52;96881.44;;;15.25;60.50
40285;BME280;25997;50.214;19.354;2023-05-15T07:02:54;96891.25;;;15.15;60.44
40285;BME280;25997;50.214;19.354;2023-05-15T07:05:58;96905.56;;;14.91;60.57
40285;BME280;25997;50.214;19.354;2023-05-15T07:09:00;96897.75;;;14.76;60.40
40285;BME280;25997;50.214;19.354;2023-05-15T07:12:03;96895.16;;;14.72;60.91
40285;BME280;25997;50.214;19.354;2023-05-15T07:15:07;96882.81;;;14.75;60.80
40285;BME280;25997;50.214;19.354;2023-05-15T07:18:09;96879.19;;;14.87;60.72
40285;BME280;25997;50.214;19.354;2023-05-15T07:21:13;96888.03;;;14.86;60.54
40285;BME280;25997;50.214;19.354;2023-05-15T07:24:15;96885.47;;;14.75;60.38
40285;BME280;25997;50.214;19.354;2023-05-15T07:27:18;96888.16;;;14.68;60.75
40285;BME280;25997;50.214;19.354;2023-05-15T07:30:20;96885.56;;;14.62;60.83
40285;BME280;25997;50.214;19.354;2023-05-15T07:33:23;96889.03;;;14.67;60.67
40285;BME280;25997;50.214;19.354;2023-05-15T07:36:27;96884.53;;;14.78;60.71
40285;BME280;25997;50.214;19.354;2023-05-15T07:39:30;96889.78;;;14.88;60.44
40285;BME280;25997;50.214;19.354;2023-05-15T07:42:32;96893.28;;;14.87;60.44
40285;BME280;25997;50.214;19.354;2023-05-15T07:45:34;96890.56;;;14.96;60.42
40285;BME280;25997;50.214;19.354;2023-05-15T07:48:37;96898.41;;;15.05;60.26
40285;BME280;25997;50.214;19.354;2023-05-15T07:51:41;96908.03;;;15.11;60.37
40285;BME280;25997;50.214;19.354;2023-05-15T07:54:43;96900.91;;;15.16;60.46
40285;BME280;25997;50.214;19.354;2023-05-15T07:57:46;96900.81;;;15.27;60.08
40285;BME280;25997;50.214;19.354;2023-05-15T08:00:48;96901.91;;;15.08;60.04
40285;BME280;25997;50.214;19.354;2023-05-15T08:03:50;96901.88;;;15.11;59.91
40285;BME280;25997;50.214;19.354;2023-05-15T08:06:54;96891.22;;;15.20;60.09
40285;BME280;25997;50.214;19.354;2023-05-15T08:09:57;96903.41;;;15.31;59.61
40285;BME280;25997;50.214;19.354;2023-05-15T08:12:59;96914.19;;;15.13;59.08
40285;BME280;25997;50.214;19.354;2023-05-15T08:16:02;96910.88;;;14.93;59.30
40285;BME280;25997;50.214;19.354;2023-05-15T08:19:05;96916.22;;;14.85;59.55
40285;BME280;25997;50.214;19.354;2023-05-15T08:22:09;96921.59;;;14.72;59.86
40285;BME280;25997;50.214;19.354;2023-05-15T08:25:11;96911.16;;;14.54;60.21
40285;BME280;25997;50.214;19.354;2023-05-15T08:28:14;96923.50;;;14.55;60.52
40285;BME280;25997;50.214;19.354;2023-05-15T08:31:16;96928.81;;;14.50;60.63
40285;BME280;25997;50.214;19.354;2023-05-15T08:34:19;96924.50;;;14.37;60.61
40285;BME280;25997;50.214;19.354;2023-05-15T08:37:23;96916.66;;;14.26;61.21
40285;BME280;25997;50.214;19.354;2023-05-15T08:40:26;96921.94;;;14.26;61.14
40285;BME280;25997;50.214;19.354;2023-05-15T08:43:28;96926.25;;;14.40;61.20
40285;BME280;25997;50.214;19.354;2023-05-15T08:46:34;96921.78;;;14.48;60.82
40285;BME280;25997;50.214;19.354;2023-05-15T08:49:44;96922.63;;;14.50;61.00
40285;BME280;25997;50.214;19.354;2023-05-15T08:52:52;96909.38;;;14.57;60.41
40285;BME280;25997;50.214;19.354;2023-05-15T08:55:58;96917.16;;;14.75;60.83
40285;BME280;25997;50.214;19.354;2023-05-15T08:59:00;96923.28;;;14.86;60.33
40285;BME280;25997;50.214;19.354;2023-05-15T09:02:03;96914.38;;;14.93;60.42
40285;BME280;25997;50.214;19.354;2023-05-15T09:05:07;96917.03;;;14.95;59.96
40285;BME280;25997;50.214;19.354;2023-05-15T09:08:11;96914.31;;;14.98;59.65
40285;BME280;25997;50.214;19.354;2023-05-15T09:11:15;96921.31;;;15.05;59.38
40285;BME280;25997;50.214;19.354;2023-05-15T09:14:18;96924.78;;;15.13;59.63
40285;BME280;25997;50.214;19.354;2023-05-15T09:17:21;96924.78;;;15.12;59.51
40285;BME280;25997;50.214;19.354;2023-05-15T09:20:25;96926.56;;;15.10;59.50
40285;BME280;25997;50.214;19.354;2023-05-15T09:23:29;96930.09;;;15.10;59.51
40285;BME280;25997;50.214;19.354;2023-05-15T09:26:32;96920.44;;;15.04;59.62
40285;BME280;25997;50.214;19.354;2023-05-15T09:29:36;96926.63;;;15.03;59.57
40285;BME280;25997;50.214;19.354;2023-05-15T09:32:39;96926.59;;;15.07;60.08
40285;BME280;25997;50.214;19.354;2023-05-15T09:35:42;96926.47;;;15.19;59.71
40285;BME280;25997;50.214;19.354;2023-05-15T09:38:46;96921.88;;;15.36;59.78
40285;BME280;25997;50.214;19.354;2023-05-15T09:41:49;96926.13;;;15.49;59.65
40285;BME280;25997;50.214;19.354;2023-05-15T09:44:52;96925.13;;;15.63;59.59
40285;BME280;25997;50.214;19.354;2023-05-15T09:47:54;96930.41;;;15.62;59.29
40285;BME280;25997;50.214;19.354;2023-05-15T09:50:57;96939.25;;;15.58;59.04
40285;BME280;25997;50.214;19.354;2023-05-15T09:54:01;96949.09;;;15.48;59.33
40285;BME280;25997;50.214;19.354;2023-05-15T09:57:08;96953.41;;;15.55;59.65
40285;BME280;25997;50.214;19.354;2023-05-15T10:00:12;96952.41;;;15.68;59.92
40285;BME280;25997;50.214;19.354;2023-05-15T10:03:16;96952.31;;;15.76;59.59
40285;BME280;25997;50.214;19.354;2023-05-15T10:06:19;96965.63;;;15.70;59.78
40285;BME280;25997;50.214;19.354;2023-05-15T10:09:29;96963.75;;;15.80;59.78
40285;BME280;25997;50.214;19.354;2023-05-15T10:12:33;96962.81;;;15.84;59.80
40285;BME280;25997;50.214;19.354;2023-05-15T10:15:37;96961.84;;;15.91;59.63
40285;BME280;25997;50.214;19.354;2023-05-15T10:18:40;96963.47;;;16.01;60.18
40285;BME280;25997;50.214;19.354;2023-05-15T10:21:46;96955.25;;;16.20;59.55
40285;BME280;25997;50.214;19.354;2023-05-15T10:25:02;96965.88;;;16.19;59.18
40285;BME280;25997;50.214;19.354;2023-05-15T10:28:08;96973.16;;;16.03;59.72
40285;BME280;25997;50.214;19.354;2023-05-15T10:31:10;96977.19;;;15.60;58.81
40285;BME280;25997;50.214;19.354;2023-05-15T10:34:14;96967.69;;;15.38;59.24
40285;BME280;25997;50.214;19.354;2023-05-15T10:37:18;96976.56;;;15.35;59.81
40285;BME280;25997;50.214;19.354;2023-05-15T10:40:23;96975.81;;;15.21;59.46
40285;BME280;25997;50.214;19.354;2023-05-15T10:43:27;96970.56;;;15.14;59.62
40285;BME280;25997;50.214;19.354;2023-05-15T10:46:33;96968.94;;;15.03;59.52
40285;BME280;25997;50.214;19.354;2023-05-15T10:49:36;96962.84;;;14.92;59.59
40285;BME280;25997;50.214;19.354;2023-05-15T10:52:39;96962.91;;;14.86;59.89
40285;BME280;25997;50.214;19.354;2023-05-15T10:55:43;96962.00;;;14.90;60.07
40285;BME280;25997;50.214;19.354;2023-05-15T10:58:47;96954.88;;;14.97;59.33
40285;BME280;25997;50.214;19.354;2023-05-15T11:01:50;96953.03;;;15.07;59.10
40285;BME280;25997;50.214;19.354;2023-05-15T11:04:54;96960.91;;;15.11;59.50
40285;BME280;25997;50.214;19.354;2023-05-15T11:08:24;96951.09;;;15.24;59.21
40285;BME280;25997;50.214;19.354;2023-05-15T11:11:55;96943.69;;;15.56;59.57
40285;BME280;25997;50.214;19.354;2023-05-15T11:15:19;96948.50;;;16.00;59.37
40285;BME280;25997;50.214;19.354;2023-05-15T11:18:25;96945.19;;;16.48;58.73
40285;BME280;25997;50.214;19.354;2023-05-15T11:21:30;96938.00;;;17.08;57.60
40285;BME280;25997;50.214;19.354;2023-05-15T11:24:48;96935.50;;;17.93;56.83
40285;BME280;25997;50.214;19.354;2023-05-15T11:27:53;96936.19;;;18.44;56.59
40285;BME280;25997;50.214;19.354;2023-05-15T11:30:59;96941.47;;;18.46;56.69
40285;BME280;25997;50.214;19.354;2023-05-15T11:34:04;96934.66;;;18.33;56.57
40285;BME280;25997;50.214;19.354;2023-05-15T11:37:09;96921.78;;;18.15;56.50
40285;BME280;25997;50.214;19.354;2023-05-15T11:40:19;96932.84;;;17.93;56.31
40285;BME280;25997;50.214;19.354;2023-05-15T11:43:25;96938.91;;;17.57;56.36
40285;BME280;25997;50.214;19.354;2023-05-15T11:46:28;96935.53;;;17.48;57.02
40285;BME280;25997;50.214;19.354;2023-05-15T11:49:33;96939.47;;;17.27;56.29
40285;BME280;25997;50.214;19.354;2023-05-15T11:52:36;96928.38;;;17.02;55.87
40285;BME280;25997;50.214;19.354;2023-05-15T11:55:39;96937.66;;;16.76;56.12
40285;BME280;25997;50.214;19.354;2023-05-15T11:58:43;96936.53;;;16.35;56.79
40285;BME280;25997;50.214;19.354;2023-05-15T12:01:46;96932.38;;;16.16;57.70
40285;BME280;25997;50.214;19.354;2023-05-15T12:04:49;96925.81;;;16.41;57.73
40285;BME280;25997;50.214;19.354;2023-05-15T12:07:51;96909.88;;;17.47;57.83
40285;BME280;25997;50.214;19.354;2023-05-15T12:10:57;96918.00;;;18.25;56.10
40285;BME280;25997;50.214;19.354;2023-05-15T12:14:01;96929.00;;;18.86;54.35
40285;BME280;25997;50.214;19.354;2023-05-15T12:17:04;96918.47;;;19.49;52.76
40285;BME280;25997;50.214;19.354;2023-05-15T12:20:10;96914.97;;;19.79;51.28
40285;BME280;25997;50.214;19.354;2023-05-15T12:23:15;96921.22;;;19.78;51.27
40285;BME280;25997;50.214;19.354;2023-05-15T12:26:19;96928.41;;;19.43;50.63
40285;BME280;25997;50.214;19.354;2023-05-15T12:29:24;96922.06;;;18.79;50.35
40285;BME280;25997;50.214;19.354;2023-05-15T12:32:30;96913.09;;;18.07;52.15
40285;BME280;25997;50.214;19.354;2023-05-15T12:35:33;96908.94;;;17.51;52.96
40285;BME280;25997;50.214;19.354;2023-05-15T12:38:36;96918.56;;;17.07;53.85
40285;BME280;25997;50.214;19.354;2023-05-15T12:41:38;96907.41;;;16.89;54.23
40285;BME280;25997;50.214;19.354;2023-05-15T12:44:43;96914.13;;;16.58;54.55
40285;BME280;25997;50.214;19.354;2023-05-15T12:47:47;96913.53;;;16.37;54.86
40285;BME280;25997;50.214;19.354;2023-05-15T12:50:50;96930.72;;;16.08;55.80
40285;BME280;25997;50.214;19.354;2023-05-15T12:53:52;96930.19;;;15.82;56.31
40285;BME280;25997;50.214;19.354;2023-05-15T12:56:55;96933.53;;;15.96;57.01
40285;BME280;25997;50.214;19.354;2023-05-15T12:59:59;96917.72;;;16.52;56.80
40285;BME280;25997;50.214;19.354;2023-05-15T13:03:02;96917.63;;;16.60;56.11
40285;BME280;25997;50.214;19.354;2023-05-15T13:06:05;96918.34;;;16.69;56.29
40285;BME280;25997;50.214;19.354;2023-05-15T13:09:10;96915.66;;;17.68;56.63
40285;BME280;25997;50.214;19.354;2023-05-15T13:12:12;96929.03;;;18.46;55.31
40285;BME280;25997;50.214;19.354;2023-05-15T13:15:25;96926.97;;;19.31;52.02
40285;BME280;25997;50.214;19.354;2023-05-15T13:18:30;96940.97;;;19.04;52.72
40285;BME280;25997;50.214;19.354;2023-05-15T13:21:32;96927.53;;;18.35;52.65
40285;BME280;25997;50.214;19.354;2023-05-15T13:24:35;96915.50;;;17.76;53.42
40285;BME280;25997;50.214;19.354;2023-05-15T13:27:37;96918.44;;;17.15;53.99
40285;BME280;25997;50.214;19.354;2023-05-15T13:30:41;96919.22;;;16.70;55.16
40285;BME280;25997;50.214;19.354;2023-05-15T13:33:44;96928.41;;;16.47;55.50
40285;BME280;25997;50.214;19.354;2023-05-15T13:36:46;96932.28;;;16.24;56.37
40285;BME280;25997;50.214;19.354;2023-05-15T13:39:49;96934.53;;;15.89;57.38
40285;BME280;25997;50.214;19.354;2023-05-15T13:42:51;96925.13;;;15.62;57.69
40285;BME280;25997;50.214;19.354;2023-05-15T13:45:55;96921.97;;;15.28;58.42
40285;BME280;25997;50.214;19.354;2023-05-15T13:48:57;96918.38;;;15.34;58.61
40285;BME280;25997;50.214;19.354;2023-05-15T13:52:00;96917.44;;;15.39;58.49
40285;BME280;25997;50.214;19.354;2023-05-15T13:55:05;96919.19;;;15.42;58.68
40285;BME280;25997;50.214;19.354;2023-05-15T13:58:09;96904.94;;;15.52;58.70
40285;BME280;25997;50.214;19.354;2023-05-15T14:01:14;96908.44;;;15.54;58.76
40285;BME280;25997;50.214;19.354;2023-05-15T14:04:16;96912.00;;;15.50;59.31
40285;BME280;25997;50.214;19.354;2023-05-15T14:07:21;96913.63;;;15.64;58.82
40285;BME280;25997;50.214;19.354;2023-05-15T14:10:23;96925.03;;;15.71;58.63
40285;BME280;25997;50.214;19.354;2023-05-15T14:13:26;96924.91;;;15.82;59.07
40285;BME280;25997;50.214;19.354;2023-05-15T14:16:33;96922.97;;;15.91;58.74
40285;BME280;25997;50.214;19.354;2023-05-15T14:19:36;96930.22;;;15.78;58.93
40285;BME280;25997;50.214;19.354;2023-05-15T14:22:39;96926.69;;;15.80;59.11
40285;BME280;25997;50.214;19.354;2023-05-15T14:25:42;96923.34;;;16.31;58.79
40285;BME280;25997;50.214;19.354;2023-05-15T14:28:44;96933.88;;;16.34;58.27
40285;BME280;25997;50.214;19.354;2023-05-15T14:31:48;96929.50;;;16.31;58.43
40285;BME280;25997;50.214;19.354;2023-05-15T14:34:50;96932.75;;;16.52;57.92
40285;BME280;25997;50.214;19.354;2023-05-15T14:37:53;96922.00;;;16.62;57.57
40285;BME280;25997;50.214;19.354;2023-05-15T14:40:55;96925.50;;;16.63;56.75
40285;BME280;25997;50.214;19.354;2023-05-15T14:43:58;96924.63;;;16.64;57.03
40285;BME280;25997;50.214;19.354;2023-05-15T14:47:09;96933.25;;;16.76;56.77
40285;BME280;25997;50.214;19.354;2023-05-15T14:50:12;96933.63;;;17.05;56.43
40285;BME280;25997;50.214;19.354;2023-05-15T14:53:14;96931.97;;;16.98;56.23
40285;BME280;25997;50.214;19.354;2023-05-15T14:56:17;96929.72;;;16.76;56.36
40285;BME280;25997;50.214;19.354;2023-05-15T14:59:19;96930.75;;;16.67;56.95
40285;BME280;25997;50.214;19.354;2023-05-15T15:02:23;96923.72;;;16.65;56.77
40285;BME280;25997;50.214;19.354;2023-05-15T15:05:25;96921.41;;;16.97;56.47
40285;BME280;25997;50.214;19.354;2023-05-15T15:08:28;96917.91;;;16.93;56.28
40285;BME280;25997;50.214;19.354;2023-05-15T15:11:30;96920.56;;;16.93;55.91
40285;BME280;25997;50.214;19.354;2023-05-15T15:14:33;96933.50;;;17.13;56.19
40285;BME280;25997;50.214;19.354;2023-05-15T15:17:37;96929.81;;;17.23;55.74
40285;BME280;25997;50.214;19.354;2023-05-15T15:20:40;96929.06;;;17.15;55.59
40285;BME280;25997;50.214;19.354;2023-05-15T15:23:44;96937.47;;;17.84;56.01
40285;BME280;25997;50.214;19.354;2023-05-15T15:26:48;96931.50;;;18.54;53.39
40285;BME280;25997;50.214;19.354;2023-05-15T15:29:50;96931.88;;;18.77;51.53
40285;BME280;25997;50.214;19.354;2023-05-15T15:32:54;96934.56;;;18.37;50.45
40285;BME280;25997;50.214;19.354;2023-05-15T15:35:56;96942.31;;;18.08;51.03
40285;BME280;25997;50.214;19.354;2023-05-15T15:38:59;96955.13;;;17.86;51.71
40285;BME280;25997;50.214;19.354;2023-05-15T15:42:01;96944.28;;;17.53;51.88
40285;BME280;25997;50.214;19.354;2023-05-15T15:45:04;96945.34;;;17.43;52.43
40285;BME280;25997;50.214;19.354;2023-05-15T15:48:08;96933.44;;;17.16;52.29
40285;BME280;25997;50.214;19.354;2023-05-15T15:51:11;96937.47;;;17.40;52.11
40285;BME280;25997;50.214;19.354;2023-05-15T15:54:13;96935.06;;;17.72;51.31
40285;BME280;25997;50.214;19.354;2023-05-15T15:57:16;96938.84;;;18.43;50.19
40285;BME280;25997;50.214;19.354;2023-05-15T16:00:19;96939.53;;;18.89;49.13
40285;BME280;25997;50.214;19.354;2023-05-15T16:03:23;96946.97;;;19.12;47.56